createdAt,value
2018-02-19T00:02:04.769Z,14.80
2018-02-19T00:04:32.279Z,16.23
2018-02-19T00:06:59.788Z,15.00
2018-02-19T00:09:27.389Z,16.77
2018-02-19T00:11:54.959Z,18.43
2018-02-19T00:14:22.468Z,15.33
2018-02-19T00:16:50.004Z,17.83
2018-02-19T00:19:17.550Z,16.70
2018-02-19T00:21:45.061Z,17.63
2018-02-19T00:24:12.595Z,15.00
2018-02-19T00:26:40.119Z,17.27
2018-02-19T00:29:07.628Z,17.23
2018-02-19T00:31:35.225Z,19.50
2018-02-19T00:34:02.761Z,19.53
2018-02-19T00:36:30.286Z,18.27
2018-02-19T00:38:57.798Z,19.53
2018-02-19T00:41:25.310Z,19.50
2018-02-19T00:43:52.819Z,19.50
2018-02-19T00:46:20.333Z,19.67
2018-02-19T00:48:47.847Z,18.30
2018-02-19T00:51:15.358Z,16.73
2018-02-19T00:53:42.881Z,16.63
2018-02-19T00:56:10.396Z,18.77
2018-02-19T00:58:37.909Z,19.80
2018-02-19T01:01:05.548Z,16.87
2018-02-19T01:03:33.052Z,16.37
2018-02-19T01:06:00.572Z,19.43
2018-02-19T01:08:28.095Z,21.40
2018-02-19T01:10:55.607Z,15.73
2018-02-19T01:13:23.124Z,17.37
2018-02-19T01:15:50.630Z,15.40
2018-02-19T01:18:18.143Z,15.17
2018-02-19T01:20:45.650Z,17.13
2018-02-19T01:23:13.165Z,17.37
2018-02-19T01:25:40.676Z,18.67
2018-02-19T01:28:08.183Z,17.57
2018-02-19T01:30:35.708Z,15.53
2018-02-19T01:33:03.226Z,18.50
2018-02-19T01:35:30.752Z,15.23
2018-02-19T01:37:58.322Z,18.97
2018-02-19T01:40:25.888Z,16.23
2018-02-19T01:42:53.418Z,16.73
2018-02-19T01:45:20.999Z,15.67
2018-02-19T01:47:48.562Z,19.70
2018-02-19T01:50:16.072Z,16.90
2018-02-19T01:52:43.585Z,16.10
2018-02-19T01:55:11.206Z,19.63
2018-02-19T01:57:38.761Z,15.87
2018-02-19T02:00:06.308Z,13.73
2018-02-19T02:02:33.916Z,18.50
2018-02-19T02:05:01.475Z,19.63
2018-02-19T02:07:28.983Z,14.33
2018-02-19T02:09:56.597Z,17.73
2018-02-19T02:12:24.109Z,16.37
2018-02-19T02:14:51.720Z,13.47
2018-02-19T02:17:19.229Z,18.80
2018-02-19T02:19:46.747Z,16.63
2018-02-19T02:22:14.261Z,19.23
2018-02-19T02:24:41.783Z,14.23
2018-02-19T02:27:09.295Z,15.97
2018-02-19T02:29:36.869Z,15.13
2018-02-19T02:32:04.377Z,14.37
2018-02-19T02:34:31.992Z,13.37
2018-02-19T02:36:59.518Z,17.33
2018-02-19T02:39:27.054Z,19.13
2018-02-19T02:41:54.675Z,14.13
2018-02-19T02:44:22.244Z,15.43
2018-02-19T02:46:49.765Z,14.93
2018-02-19T02:49:17.318Z,14.13
2018-02-19T02:51:44.858Z,15.50
2018-02-19T02:54:12.375Z,15.93
2018-02-19T02:56:39.905Z,16.87
2018-02-19T02:59:07.493Z,20.87
2018-02-19T03:01:35.013Z,16.77
2018-02-19T03:04:02.553Z,19.40
2018-02-19T03:06:30.064Z,15.33
2018-02-19T03:08:58.025Z,15.87
2018-02-19T03:11:25.612Z,16.53
2018-02-19T03:13:53.162Z,21.13
2018-02-19T03:16:20.670Z,17.93
2018-02-19T03:18:48.180Z,16.53
2018-02-19T03:21:15.706Z,16.47
2018-02-19T03:23:43.227Z,15.30
2018-02-19T03:26:10.756Z,15.83
2018-02-19T03:28:38.313Z,18.80
2018-02-19T03:31:05.836Z,17.53
2018-02-19T03:33:33.436Z,22.33
2018-02-19T03:36:01.104Z,17.73
2018-02-19T03:38:28.621Z,19.77
2018-02-19T03:40:56.221Z,17.20
2018-02-19T03:43:23.782Z,20.70
2018-02-19T03:45:51.296Z,17.10
2018-02-19T03:48:18.816Z,18.83
2018-02-19T03:50:46.324Z,17.80
2018-02-19T03:53:13.832Z,17.27
2018-02-19T03:55:41.345Z,17.20
2018-02-19T03:58:08.937Z,19.47
2018-02-19T04:00:36.456Z,19.03
2018-02-19T04:03:03.996Z,16.90
2018-02-19T04:05:31.616Z,15.80
2018-02-19T04:07:59.179Z,17.77
2018-02-19T04:10:26.728Z,17.67
2018-02-19T04:12:54.292Z,17.70
2018-02-19T04:15:21.857Z,18.27
2018-02-19T04:17:49.411Z,21.47
2018-02-19T04:20:16.977Z,17.97
2018-02-19T04:22:44.489Z,22.27
2018-02-19T04:25:12.095Z,19.43
2018-02-19T04:27:39.604Z,17.83
2018-02-19T04:30:07.127Z,19.80
2018-02-19T04:32:34.646Z,19.37
2018-02-19T04:35:02.238Z,21.43
2018-02-19T04:37:29.793Z,19.53
2018-02-19T04:39:57.296Z,21.00
2018-02-19T04:42:24.913Z,22.17
2018-02-19T04:44:53.981Z,22.10
2018-02-19T04:47:21.497Z,21.70
2018-02-19T04:49:49.011Z,21.57
2018-02-19T04:52:16.601Z,19.97
2018-02-19T04:54:44.148Z,22.70
2018-02-19T04:57:11.705Z,22.63
2018-02-19T04:59:39.217Z,21.53
2018-02-19T05:02:06.745Z,22.47
2018-02-19T05:04:34.260Z,21.33
2018-02-19T05:07:01.810Z,20.47
2018-02-19T05:09:29.336Z,23.37
2018-02-19T05:11:56.849Z,19.97
2018-02-19T05:14:24.388Z,21.07
2018-02-19T05:16:51.993Z,23.53
2018-02-19T05:19:19.539Z,23.33
2018-02-19T05:21:47.074Z,22.20
2018-02-19T05:24:14.604Z,22.73
2018-02-19T05:26:42.116Z,22.97
2018-02-19T05:29:09.681Z,25.37
2018-02-19T05:31:37.245Z,23.57
2018-02-19T05:34:04.759Z,25.47
2018-02-19T05:36:32.307Z,23.30
2018-02-19T05:38:59.920Z,24.97
2018-02-19T05:41:27.484Z,26.53
2018-02-19T05:43:54.992Z,29.13
2018-02-19T05:46:22.601Z,30.10
2018-02-19T05:48:50.129Z,29.10
2018-02-19T05:51:17.648Z,24.00
2018-02-19T05:53:45.283Z,24.70
2018-02-19T05:56:12.798Z,26.77
2018-02-19T05:58:40.339Z,28.83
2018-02-19T06:01:07.856Z,31.07
2018-02-19T06:03:35.430Z,32.07
2018-02-19T06:06:02.945Z,27.23
2018-02-19T06:08:30.479Z,27.13
2018-02-19T06:10:58.008Z,29.90
2018-02-19T06:13:25.557Z,29.20
2018-02-19T06:15:53.089Z,30.97
2018-02-19T06:18:20.600Z,29.97
2018-02-19T06:20:48.104Z,32.97
2018-02-19T06:23:15.629Z,32.83
2018-02-19T06:25:43.265Z,31.13
2018-02-19T06:28:10.835Z,30.93
2018-02-19T06:30:38.350Z,29.07
2018-02-19T06:33:05.937Z,28.73
2018-02-19T06:35:33.445Z,29.77
2018-02-19T06:38:00.955Z,30.03
2018-02-19T06:40:28.498Z,28.03
2018-02-19T06:42:56.008Z,30.13
2018-02-19T06:45:23.637Z,31.50
2018-02-19T06:47:51.144Z,31.77
2018-02-19T06:50:18.752Z,36.77
2018-02-19T06:52:46.302Z,31.03
2018-02-19T06:55:13.838Z,29.87
2018-02-19T06:57:41.357Z,35.33
2018-02-19T07:00:08.872Z,31.67
2018-02-19T07:02:36.465Z,31.67
2018-02-19T07:05:03.981Z,32.60
2018-02-19T07:07:31.511Z,31.63
2018-02-19T07:09:59.031Z,39.20
2018-02-19T07:12:26.593Z,32.60
2018-02-19T07:14:54.116Z,33.93
2018-02-19T07:17:21.708Z,36.13
2018-02-19T07:19:49.225Z,32.57
2018-02-19T07:22:16.739Z,33.93
2018-02-19T07:24:44.264Z,31.87
2018-02-19T07:27:11.804Z,37.10
2018-02-19T07:29:39.405Z,31.17
2018-02-19T07:32:06.970Z,35.27
2018-02-19T07:34:34.490Z,36.63
2018-02-19T07:37:02.089Z,30.83
2018-02-19T07:39:29.596Z,35.43
2018-02-19T07:41:57.118Z,38.90
2018-02-19T07:44:24.668Z,32.97
2018-02-19T07:46:52.203Z,33.57
2018-02-19T07:49:19.728Z,32.23
2018-02-19T07:51:47.257Z,33.03
2018-02-19T07:54:14.769Z,29.60
2018-02-19T07:56:42.367Z,33.23
2018-02-19T07:59:09.887Z,30.10
2018-02-19T08:01:37.410Z,32.00
2018-02-19T08:04:04.936Z,30.83
2018-02-19T08:06:32.501Z,32.53
2018-02-19T08:09:00.063Z,29.97
2018-02-19T08:11:27.575Z,28.00
2018-02-19T08:13:55.121Z,33.90
2018-02-19T08:16:22.658Z,30.00
2018-02-19T08:18:50.199Z,28.70
2018-02-19T08:21:17.708Z,28.93
2018-02-19T08:23:45.220Z,27.73
2018-02-19T08:26:12.729Z,30.53
2018-02-19T08:28:40.246Z,29.27
2018-02-19T08:31:07.764Z,29.90
2018-02-19T08:33:35.288Z,32.23
2018-02-19T08:36:02.797Z,30.23
2018-02-19T08:38:30.313Z,28.50
2018-02-19T08:40:57.839Z,28.50
2018-02-19T08:43:25.352Z,25.17
2018-02-19T08:45:52.901Z,27.10
2018-02-19T08:48:20.417Z,26.87
2018-02-19T08:50:47.932Z,27.67
2018-02-19T08:53:15.489Z,25.50
2018-02-19T08:55:42.997Z,29.10
2018-02-19T08:58:10.522Z,27.33
2018-02-19T09:00:38.044Z,25.07
2018-02-19T09:03:05.547Z,26.93
2018-02-19T09:05:33.062Z,27.50
2018-02-19T09:08:00.635Z,26.63
2018-02-19T09:10:28.151Z,27.80
2018-02-19T09:12:55.669Z,26.37
2018-02-19T09:15:23.183Z,26.97
2018-02-19T09:17:50.696Z,26.10
2018-02-19T09:20:18.214Z,28.17
2018-02-19T09:22:45.737Z,27.80
2018-02-19T09:25:13.249Z,25.53
2018-02-19T09:27:40.767Z,25.63
2018-02-19T09:30:08.281Z,28.93
2018-02-19T09:32:35.801Z,25.60
2018-02-19T09:35:03.312Z,26.43
2018-02-19T09:37:30.828Z,30.20
2018-02-19T09:39:58.340Z,26.00
2018-02-19T09:42:25.848Z,27.53
2018-02-19T09:44:53.385Z,25.80
2018-02-19T09:47:20.898Z,28.13
2018-02-19T09:49:48.419Z,26.00
2018-02-19T09:52:15.924Z,28.07
2018-02-19T09:54:43.433Z,25.83
2018-02-19T09:57:10.961Z,27.90
2018-02-19T09:59:38.480Z,28.43
2018-02-19T10:02:05.990Z,24.97
2018-02-19T10:04:33.497Z,25.33
2018-02-19T10:07:01.013Z,26.77
2018-02-19T10:09:28.538Z,29.60
2018-02-19T10:11:56.052Z,26.83
2018-02-19T10:14:23.569Z,28.07
2018-02-19T10:16:51.095Z,25.23
2018-02-19T10:19:18.607Z,27.73
2018-02-19T10:21:46.117Z,27.30
2018-02-19T10:24:13.636Z,29.60
2018-02-19T10:26:41.150Z,24.73
2018-02-19T10:29:08.667Z,24.63
2018-02-19T10:31:36.179Z,25.43
2018-02-19T10:34:03.688Z,26.20
2018-02-19T10:36:31.224Z,25.20
2018-02-19T10:38:58.732Z,27.10
2018-02-19T10:41:26.244Z,28.43
2018-02-19T10:43:53.748Z,27.43
2018-02-19T10:46:21.302Z,26.83
2018-02-19T10:48:48.815Z,24.50
2018-02-19T10:51:16.340Z,26.80
2018-02-19T10:53:43.857Z,25.17
2018-02-19T10:56:11.369Z,32.37
2018-02-19T10:58:44.849Z,29.07
2018-02-19T11:01:12.365Z,26.63
2018-02-19T11:03:39.883Z,26.13
2018-02-19T11:06:07.424Z,26.83
2018-02-19T11:08:34.942Z,30.10
2018-02-19T11:11:02.454Z,24.30
2018-02-19T11:13:29.977Z,26.83
2018-02-19T11:15:57.491Z,27.23
2018-02-19T11:18:25.001Z,25.83
2018-02-19T11:20:52.513Z,25.40
2018-02-19T11:23:20.054Z,25.47
2018-02-19T11:25:47.564Z,26.03
2018-02-19T11:28:15.073Z,25.90
2018-02-19T11:30:42.593Z,26.20
2018-02-19T11:33:10.128Z,26.40
2018-02-19T11:35:37.645Z,25.93
2018-02-19T11:38:05.167Z,25.00
2018-02-19T11:40:32.682Z,26.80
2018-02-19T11:43:00.197Z,26.33
2018-02-19T11:45:27.734Z,25.90
2018-02-19T11:47:55.261Z,27.50
2018-02-19T11:50:22.789Z,25.40
2018-02-19T11:52:50.293Z,26.67
2018-02-19T11:55:17.854Z,23.17
2018-02-19T11:57:45.345Z,26.57
2018-02-19T12:00:12.853Z,23.30
2018-02-19T12:02:40.381Z,23.53
2018-02-19T12:05:07.903Z,22.97
2018-02-19T12:07:35.420Z,30.57
2018-02-19T12:10:02.949Z,23.70
2018-02-19T12:12:30.460Z,24.43
2018-02-19T12:14:57.977Z,25.37
2018-02-19T12:17:25.494Z,25.37
2018-02-19T12:19:53.004Z,25.67
2018-02-19T12:22:20.523Z,25.57
2018-02-19T12:24:48.046Z,25.10
2018-02-19T12:27:15.553Z,26.90
2018-02-19T12:29:43.079Z,25.60
2018-02-19T12:32:10.589Z,22.77
2018-02-19T12:34:38.194Z,26.57
2018-02-19T12:37:05.704Z,24.33
2018-02-19T12:39:33.243Z,22.83
2018-02-19T12:42:00.771Z,23.67
2018-02-19T12:44:28.323Z,26.67
2018-02-19T12:46:55.824Z,22.30
2018-02-19T12:49:23.441Z,23.97
2018-02-19T12:51:50.960Z,24.57
2018-02-19T12:54:18.561Z,21.73
2018-02-19T12:56:46.081Z,23.13
2018-02-19T12:59:13.599Z,23.13
2018-02-19T13:01:41.113Z,22.50
2018-02-19T13:04:08.697Z,23.00
2018-02-19T13:06:36.204Z,23.03
2018-02-19T13:09:03.833Z,23.67
2018-02-19T13:11:31.377Z,22.73
2018-02-19T13:13:58.880Z,23.60
2018-02-19T13:16:26.509Z,23.37
2018-02-19T13:18:54.024Z,23.00
2018-02-19T13:21:21.556Z,21.80
2018-02-19T13:23:49.065Z,20.50
2018-02-19T13:26:18.122Z,22.10
2018-02-19T13:28:45.634Z,24.33
2018-02-19T13:31:13.158Z,19.80
2018-02-19T13:33:40.672Z,21.17
2018-02-19T13:36:08.271Z,18.53
2018-02-19T13:38:35.781Z,21.10
2018-02-19T13:41:03.415Z,19.47
2018-02-19T13:43:35.423Z,19.13
2018-02-19T13:46:02.938Z,18.97
2018-02-19T13:48:30.450Z,19.13
2018-02-19T13:50:57.964Z,16.27
2018-02-19T13:53:25.481Z,19.30
2018-02-19T13:55:52.994Z,20.70
2018-02-19T13:58:20.522Z,20.07
2018-02-19T14:00:48.038Z,19.67
2018-02-19T14:03:15.553Z,15.07
2018-02-19T14:05:43.113Z,17.10
2018-02-19T14:08:10.626Z,18.23
2018-02-19T14:10:38.148Z,20.30
2018-02-19T14:13:05.658Z,18.67
2018-02-19T14:15:33.173Z,21.67
2018-02-19T14:18:00.687Z,18.07
2018-02-19T14:20:28.204Z,18.23
2018-02-19T14:22:55.712Z,19.13
2018-02-19T14:25:23.224Z,20.77
2018-02-19T14:27:50.742Z,16.90
2018-02-19T14:30:18.253Z,20.30
2018-02-19T14:32:45.769Z,19.47
2018-02-19T14:35:13.297Z,20.47
2018-02-19T14:37:40.836Z,18.80
2018-02-19T14:40:08.355Z,19.67
2018-02-19T14:42:35.865Z,18.17
2018-02-19T14:45:03.374Z,19.47
2018-02-19T14:47:30.885Z,18.73
2018-02-19T14:49:58.392Z,19.47
2018-02-19T14:52:25.903Z,20.23
2018-02-19T14:54:53.422Z,22.67
2018-02-19T14:57:20.938Z,19.57
2018-02-19T14:59:49.308Z,19.50
2018-02-19T15:02:16.792Z,20.95
2018-02-19T15:04:44.309Z,19.60
2018-02-19T15:07:11.821Z,18.03
2018-02-19T15:09:39.329Z,21.20
2018-02-19T15:12:06.836Z,18.23
2018-02-19T15:14:34.369Z,20.17
2018-02-19T15:17:01.893Z,21.93
2018-02-19T15:19:29.404Z,21.77
2018-02-19T15:21:56.989Z,21.50
2018-02-19T15:24:24.513Z,24.97
2018-02-19T15:26:52.096Z,20.80
2018-02-19T15:29:19.604Z,19.27
2018-02-19T15:31:47.112Z,22.23
2018-02-19T15:34:14.627Z,23.40
2018-02-19T15:36:42.201Z,19.70
2018-02-19T15:39:09.803Z,21.20
2018-02-19T15:41:37.336Z,19.80
2018-02-19T15:44:04.881Z,19.23
2018-02-19T15:46:32.398Z,23.30
2018-02-19T15:48:59.916Z,21.87
2018-02-19T15:51:27.469Z,23.20
2018-02-19T15:53:54.984Z,20.80
2018-02-19T15:56:22.512Z,20.93
2018-02-19T15:58:50.033Z,23.83
2018-02-19T16:01:17.554Z,21.57
2018-02-19T16:03:45.077Z,21.23
2018-02-19T16:06:12.648Z,22.10
2018-02-19T16:08:40.156Z,22.60
2018-02-19T16:11:07.661Z,21.20
2018-02-19T16:13:35.226Z,25.40
2018-02-19T16:16:02.786Z,27.37
2018-02-19T16:18:30.292Z,25.03
2018-02-19T16:20:57.801Z,25.40
2018-02-19T16:23:25.371Z,27.23
2018-02-19T16:25:52.921Z,26.90
2018-02-19T16:28:20.482Z,26.47
2018-02-19T16:30:48.009Z,23.87
2018-02-19T16:33:15.602Z,26.70
2018-02-19T16:35:43.111Z,28.10
2018-02-19T16:38:10.773Z,25.77
2018-02-19T16:40:38.283Z,25.27
2018-02-19T16:43:05.841Z,28.57
2018-02-19T16:45:33.351Z,26.00
2018-02-19T16:48:00.868Z,22.97
2018-02-19T16:50:28.376Z,26.60
2018-02-19T16:52:55.892Z,28.00
2018-02-19T16:55:23.404Z,27.43
2018-02-19T16:57:50.909Z,29.40
2018-02-19T17:00:18.429Z,25.00
2018-02-19T17:02:45.969Z,26.90
2018-02-19T17:05:13.577Z,26.97
2018-02-19T17:07:41.104Z,28.67
2018-02-19T17:10:08.706Z,25.43
2018-02-19T17:12:36.253Z,29.33
2018-02-19T17:15:03.817Z,28.10
2018-02-19T17:17:31.372Z,26.67
2018-02-19T17:19:58.904Z,28.90
2018-02-19T17:22:26.433Z,28.43
2018-02-19T17:24:53.939Z,27.87
2018-02-19T17:27:21.459Z,31.03
2018-02-19T17:29:48.983Z,30.57
2018-02-19T17:32:16.492Z,28.33
2018-02-19T17:34:43.998Z,30.10
2018-02-19T17:37:11.504Z,28.53
2018-02-19T17:39:39.082Z,31.87
2018-02-19T17:42:06.681Z,28.83
2018-02-19T17:44:34.188Z,31.10
2018-02-19T17:47:01.801Z,29.03
2018-02-19T17:49:29.312Z,32.70
2018-02-19T17:51:56.849Z,34.80
2018-02-19T17:54:24.382Z,34.50
2018-02-19T17:56:51.928Z,35.37
2018-02-19T17:59:19.442Z,30.57
2018-02-19T18:01:46.985Z,36.20
2018-02-19T18:04:14.589Z,35.70
2018-02-19T18:06:42.113Z,32.87
2018-02-19T18:09:09.741Z,31.87
2018-02-19T18:11:37.256Z,36.60
2018-02-19T18:14:04.765Z,35.93
2018-02-19T18:16:32.268Z,31.40
2018-02-19T18:18:59.791Z,31.13
2018-02-19T18:21:27.310Z,34.30
2018-02-19T18:23:54.832Z,34.40
2018-02-19T18:26:22.343Z,33.07
2018-02-19T18:28:49.854Z,36.93
2018-02-19T18:31:17.369Z,36.10
2018-02-19T18:33:44.909Z,35.37
2018-02-19T18:36:12.421Z,37.10
2018-02-19T18:38:39.936Z,35.47
2018-02-19T18:41:07.456Z,36.10
2018-02-19T18:43:35.004Z,36.63
2018-02-19T18:46:02.515Z,36.30
2018-02-19T18:48:30.061Z,39.10
2018-02-19T18:50:57.574Z,37.43
2018-02-19T18:53:25.089Z,36.53
2018-02-19T18:55:52.595Z,34.33
2018-02-19T18:58:20.109Z,36.67
2018-02-19T19:00:47.617Z,33.87
2018-02-19T19:03:15.258Z,37.10
2018-02-19T19:05:42.804Z,41.80
2018-02-19T19:08:22.039Z,35.87
2018-02-19T19:10:52.534Z,37.97
2018-02-19T19:13:20.075Z,33.70
2018-02-19T19:15:47.613Z,35.63
2018-02-19T19:18:15.129Z,36.63
2018-02-19T19:20:42.652Z,36.90
2018-02-19T19:23:10.183Z,34.97
2018-02-19T19:25:37.709Z,36.00
2018-02-19T19:28:05.225Z,36.17
2018-02-19T19:30:32.744Z,34.37
2018-02-19T19:33:01.227Z,38.97
2018-02-19T19:35:28.749Z,37.80
2018-02-19T19:37:56.288Z,39.70
2018-02-19T19:40:23.841Z,37.00
2018-02-19T19:42:51.364Z,35.10
2018-02-19T19:45:18.905Z,38.00
2018-02-19T19:47:46.474Z,37.63
2018-02-19T19:50:13.989Z,39.20
2018-02-19T19:52:41.513Z,38.43
2018-02-19T19:55:09.145Z,42.23
2018-02-19T19:57:36.681Z,38.10
2018-02-19T20:00:04.294Z,34.97
2018-02-19T20:02:31.808Z,41.53
2018-02-19T20:04:59.388Z,42.37
2018-02-19T20:07:26.944Z,38.10
2018-02-19T20:09:55.009Z,40.70
2018-02-19T20:12:22.512Z,37.00
2018-02-19T20:14:50.141Z,35.60
2018-02-19T20:17:17.691Z,39.67
2018-02-19T20:19:45.200Z,38.30
2018-02-19T20:22:12.718Z,39.03
2018-02-19T20:24:40.228Z,37.60
2018-02-19T20:27:07.771Z,38.77
2018-02-19T20:29:35.277Z,38.37
2018-02-19T20:32:02.828Z,37.50
2018-02-19T20:34:30.345Z,39.27
2018-02-19T20:36:58.685Z,38.00
2018-02-19T20:39:26.197Z,37.67
2018-02-19T20:41:54.030Z,35.63
2018-02-19T20:44:21.558Z,37.17
2018-02-19T20:46:49.716Z,38.73
2018-02-19T20:49:17.234Z,43.00
2018-02-19T20:51:44.748Z,36.07
2018-02-19T20:54:12.281Z,41.97
2018-02-19T20:56:39.804Z,40.57
2018-02-19T20:59:07.330Z,40.90
2018-02-19T21:01:34.844Z,39.03
2018-02-19T21:04:02.361Z,40.70
2018-02-19T21:06:29.873Z,41.13
2018-02-19T21:08:57.414Z,47.50
2018-02-19T21:11:24.930Z,42.53
2018-02-19T21:13:52.442Z,42.27
2018-02-19T21:16:19.957Z,39.87
2018-02-19T21:18:47.473Z,38.20
2018-02-19T21:21:15.016Z,41.00
2018-02-19T21:23:42.532Z,36.00
2018-02-19T21:26:10.045Z,40.70
2018-02-19T21:28:37.553Z,41.60
2018-02-19T21:31:05.078Z,36.43
2018-02-19T21:33:32.592Z,38.80
2018-02-19T21:36:00.118Z,40.27
2018-02-19T21:38:27.646Z,40.20
2018-02-19T21:40:55.162Z,36.13
2018-02-19T21:43:22.678Z,39.27
2018-02-19T21:45:50.193Z,37.23
2018-02-19T21:48:17.719Z,38.73
2018-02-19T21:50:45.232Z,37.30
2018-02-19T21:53:12.758Z,39.10
2018-02-19T21:55:40.280Z,39.13
2018-02-19T21:58:07.799Z,39.10
2018-02-19T22:00:35.312Z,38.30
2018-02-19T22:03:02.862Z,37.97
2018-02-19T22:05:30.376Z,36.20
2018-02-19T22:07:57.893Z,66.40
2018-02-19T22:10:25.409Z,36.47
2018-02-19T22:12:52.930Z,41.13
2018-02-19T22:15:20.445Z,40.23
2018-02-19T22:17:47.973Z,39.33
2018-02-19T22:20:15.489Z,35.80
2018-02-19T22:22:42.997Z,42.27
2018-02-19T22:25:10.508Z,38.70
2018-02-19T22:27:38.021Z,38.37
2018-02-19T22:30:05.538Z,40.70
2018-02-19T22:32:33.070Z,41.27
2018-02-19T22:35:00.652Z,41.80
2018-02-19T22:37:28.161Z,42.90
2018-02-19T22:39:55.698Z,43.10
2018-02-19T22:42:23.208Z,43.07
2018-02-19T22:44:50.789Z,43.93
2018-02-19T22:47:18.309Z,39.87
2018-02-19T22:49:45.884Z,46.75
2018-02-19T22:52:13.586Z,44.40
2018-02-19T22:54:41.114Z,43.87
2018-02-19T22:57:08.656Z,46.37
2018-02-19T22:59:36.170Z,46.30
2018-02-19T23:02:03.680Z,47.33
2018-02-19T23:04:31.265Z,47.73
2018-02-19T23:06:58.842Z,47.30
2018-02-19T23:09:26.399Z,41.57
2018-02-19T23:11:53.922Z,46.13
2018-02-19T23:14:21.509Z,42.47
2018-02-19T23:16:49.039Z,43.83
2018-02-19T23:19:16.627Z,42.57
2018-02-19T23:21:44.174Z,48.73
2018-02-19T23:24:11.696Z,46.93
2018-02-19T23:26:39.318Z,42.80
2018-02-19T23:29:06.877Z,48.23
2018-02-19T23:31:34.886Z,45.33
2018-02-19T23:34:02.409Z,51.53
2018-02-19T23:36:29.924Z,49.50
2018-02-19T23:38:57.436Z,49.23
2018-02-19T23:41:24.958Z,52.33
2018-02-19T23:43:52.480Z,48.03
2018-02-19T23:46:20.006Z,45.70
2018-02-19T23:48:47.533Z,54.37
2018-02-19T23:51:15.055Z,49.93
2018-02-19T23:53:42.592Z,50.47
2018-02-19T23:56:10.130Z,53.47
2018-02-19T23:58:37.641Z,50.43
